Hauptseite
METAR-TAF:

METAR-TAF

Flughäfen :

Flughafen Kiel

Kiel, Deutschland

Breite: 54-23N, Länge: 010-10E, Höhe: 31 m

Beobachtung

Neuester Wetterbericht von vor 15 Minuten, um 01:50 UTC
Wind 8 kt aus Süd
Temperatur -1°C
Luftfeuchtigkeit 80%
Luftdruck 1037 hPa
Sichtweite 10 km oder mehr

METAR: EDHK 050150Z AUTO 17008KT 9999 // BKN096/// M01/M04 Q1037

Zeit: 03:05 (02:05 UTC)

Prognose

Neuester Wetterbericht von vor 12 Stunden und 5 Minuten, um 14:00 UTC
Gültige Prognose vom 04 um 15 UTC bis 04 um 19 UTC
Wind 5 kt aus Ost
Sichtweite 10 km oder mehr
Leicht bewölkt in der Höhe von 1500 ft

TAF: EDHK 041400Z 0415/0419 09005KT 9999 FEW015

Wetterbeobachtungen und Prognosen von mehr als 4000 Flughäfen (METAR und TAF Bericht).

Die verfügbaren Stationen werden durch gelbe und rote Markierungen auf der Karte dargestellt.

Führen Sie die Maus auf sie, um den Namen der Station zu sehen.

Darauf klicken, um die Beobachtung von Wetterbeobachtungen und Prognosen zu sehen.

Um die Karte zu ändern : klicken Sie auf den grünen Tasten mit einem schwarzen Kreuz Zum Vergrößern, auf den grünen Button mit einem Gedankenstrich zu verkleinern, oder auf die grünen Pfeile für benachbarte Karten.


METAR-TAF: